sensor_id;sensor_type;location;lat;lon;timestamp;P1;durP1;ratioP1;P2;durP2;ratioP2
70303;SDS011;57712;48.752;11.348;2023-11-21T00:01:25;14.68;;;5.40;;
70303;SDS011;57712;48.752;11.348;2023-11-21T00:03:52;11.47;;;2.97;;
70303;SDS011;57712;48.752;11.348;2023-11-21T00:06:21;11.35;;;3.53;;
70303;SDS011;57712;48.752;11.348;2023-11-21T00:08:48;12.30;;;3.88;;
70303;SDS011;57712;48.752;11.348;2023-11-21T00:11:15;12.85;;;3.10;;
70303;SDS011;57712;48.752;11.348;2023-11-21T00:13:41;10.32;;;3.20;;
70303;SDS011;57712;48.752;11.348;2023-11-21T00:16:08;12.48;;;3.78;;
70303;SDS011;57712;48.752;11.348;2023-11-21T00:18:35;12.25;;;4.10;;
70303;SDS011;57712;48.752;11.348;2023-11-21T00:21:02;12.27;;;3.13;;
70303;SDS011;57712;48.752;11.348;2023-11-21T00:23:29;10.35;;;3.08;;
70303;SDS011;57712;48.752;11.348;2023-11-21T00:25:57;14.00;;;2.85;;
70303;SDS011;57712;48.752;11.348;2023-11-21T00:28:24;11.27;;;3.10;;
70303;SDS011;57712;48.752;11.348;2023-11-21T00:30:52;15.60;;;3.40;;
70303;SDS011;57712;48.752;11.348;2023-11-21T00:33:19;15.50;;;3.85;;
70303;SDS011;57712;48.752;11.348;2023-11-21T00:35:46;14.23;;;3.40;;
70303;SDS011;57712;48.752;11.348;2023-11-21T00:38:13;11.98;;;3.80;;
70303;SDS011;57712;48.752;11.348;2023-11-21T00:40:39;12.63;;;4.20;;
70303;SDS011;57712;48.752;11.348;2023-11-21T00:43:06;13.32;;;4.53;;
70303;SDS011;57712;48.752;11.348;2023-11-21T00:45:33;12.00;;;4.05;;
70303;SDS011;57712;48.752;11.348;2023-11-21T00:47:59;13.43;;;3.95;;
70303;SDS011;57712;48.752;11.348;2023-11-21T00:50:26;12.48;;;4.30;;
70303;SDS011;57712;48.752;11.348;2023-11-21T00:52:53;11.97;;;3.97;;
70303;SDS011;57712;48.752;11.348;2023-11-21T00:55:20;14.50;;;3.80;;
70303;SDS011;57712;48.752;11.348;2023-11-21T00:57:47;12.60;;;4.20;;
70303;SDS011;57712;48.752;11.348;2023-11-21T01:00:14;16.05;;;4.20;;
70303;SDS011;57712;48.752;11.348;2023-11-21T01:02:43;12.07;;;4.30;;
70303;SDS011;57712;48.752;11.348;2023-11-21T01:05:14;12.23;;;3.60;;
70303;SDS011;57712;48.752;11.348;2023-11-21T01:07:41;14.55;;;4.30;;
70303;SDS011;57712;48.752;11.348;2023-11-21T01:10:08;15.63;;;3.80;;
70303;SDS011;57712;48.752;11.348;2023-11-21T01:12:36;12.70;;;3.38;;
70303;SDS011;57712;48.752;11.348;2023-11-21T01:15:04;11.85;;;3.97;;
70303;SDS011;57712;48.752;11.348;2023-11-21T01:17:35;10.45;;;2.85;;
70303;SDS011;57712;48.752;11.348;2023-11-21T01:20:02;12.73;;;3.80;;
70303;SDS011;57712;48.752;11.348;2023-11-21T01:22:33;9.48;;;3.33;;
70303;SDS011;57712;48.752;11.348;2023-11-21T01:24:59;13.43;;;3.63;;
70303;SDS011;57712;48.752;11.348;2023-11-21T01:27:27;13.50;;;3.80;;
70303;SDS011;57712;48.752;11.348;2023-11-21T01:29:54;11.57;;;3.72;;
70303;SDS011;57712;48.752;11.348;2023-11-21T01:32:21;11.40;;;3.67;;
70303;SDS011;57712;48.752;11.348;2023-11-21T01:34:50;10.93;;;3.42;;
70303;SDS011;57712;48.752;11.348;2023-11-21T01:37:17;12.13;;;3.65;;
70303;SDS011;57712;48.752;11.348;2023-11-21T01:39:43;9.65;;;3.42;;
70303;SDS011;57712;48.752;11.348;2023-11-21T01:42:10;11.63;;;3.63;;
70303;SDS011;57712;48.752;11.348;2023-11-21T01:44:39;11.68;;;3.90;;
70303;SDS011;57712;48.752;11.348;2023-11-21T01:47:07;14.45;;;4.25;;
70303;SDS011;57712;48.752;11.348;2023-11-21T01:49:34;10.68;;;3.60;;
70303;SDS011;57712;48.752;11.348;2023-11-21T01:52:02;9.77;;;3.92;;
70303;SDS011;57712;48.752;11.348;2023-11-21T01:54:30;13.03;;;3.93;;
70303;SDS011;57712;48.752;11.348;2023-11-21T01:57:01;14.98;;;4.18;;
70303;SDS011;57712;48.752;11.348;2023-11-21T01:59:31;14.18;;;3.97;;
70303;SDS011;57712;48.752;11.348;2023-11-21T02:02:01;13.27;;;4.15;;
70303;SDS011;57712;48.752;11.348;2023-11-21T02:04:27;12.50;;;3.88;;
70303;SDS011;57712;48.752;11.348;2023-11-21T02:06:54;12.80;;;3.55;;
70303;SDS011;57712;48.752;11.348;2023-11-21T02:09:25;11.70;;;4.07;;
70303;SDS011;57712;48.752;11.348;2023-11-21T02:11:53;11.95;;;3.63;;
70303;SDS011;57712;48.752;11.348;2023-11-21T02:14:24;12.85;;;4.00;;
70303;SDS011;57712;48.752;11.348;2023-11-21T02:16:55;11.88;;;4.65;;
70303;SDS011;57712;48.752;11.348;2023-11-21T02:19:27;10.85;;;4.50;;
70303;SDS011;57712;48.752;11.348;2023-11-21T02:21:56;13.45;;;4.57;;
70303;SDS011;57712;48.752;11.348;2023-11-21T02:24:27;12.68;;;5.40;;
70303;SDS011;57712;48.752;11.348;2023-11-21T02:26:54;15.35;;;4.38;;
70303;SDS011;57712;48.752;11.348;2023-11-21T02:29:21;12.23;;;4.32;;
70303;SDS011;57712;48.752;11.348;2023-11-21T02:31:54;13.57;;;4.30;;
70303;SDS011;57712;48.752;11.348;2023-11-21T02:34:22;10.15;;;3.75;;
70303;SDS011;57712;48.752;11.348;2023-11-21T02:36:49;12.63;;;4.13;;
70303;SDS011;57712;48.752;11.348;2023-11-21T02:39:16;14.10;;;5.22;;
70303;SDS011;57712;48.752;11.348;2023-11-21T02:41:43;13.80;;;5.10;;
70303;SDS011;57712;48.752;11.348;2023-11-21T02:44:11;12.60;;;4.13;;
70303;SDS011;57712;48.752;11.348;2023-11-21T02:46:37;12.63;;;4.60;;
70303;SDS011;57712;48.752;11.348;2023-11-21T02:49:06;11.60;;;4.35;;
70303;SDS011;57712;48.752;11.348;2023-11-21T02:51:33;12.35;;;4.90;;
70303;SDS011;57712;48.752;11.348;2023-11-21T02:54:00;13.55;;;4.97;;
70303;SDS011;57712;48.752;11.348;2023-11-21T02:56:29;18.77;;;5.00;;
70303;SDS011;57712;48.752;11.348;2023-11-21T02:58:55;11.07;;;5.18;;
70303;SDS011;57712;48.752;11.348;2023-11-21T03:01:23;13.20;;;4.63;;
70303;SDS011;57712;48.752;11.348;2023-11-21T03:03:53;16.08;;;4.63;;
70303;SDS011;57712;48.752;11.348;2023-11-21T03:06:21;15.88;;;4.70;;
70303;SDS011;57712;48.752;11.348;2023-11-21T03:08:49;12.43;;;4.53;;
70303;SDS011;57712;48.752;11.348;2023-11-21T03:11:17;12.63;;;4.50;;
70303;SDS011;57712;48.752;11.348;2023-11-21T03:13:44;12.07;;;4.43;;
70303;SDS011;57712;48.752;11.348;2023-11-21T03:16:11;12.18;;;4.40;;
70303;SDS011;57712;48.752;11.348;2023-11-21T03:18:39;11.73;;;4.50;;
70303;SDS011;57712;48.752;11.348;2023-11-21T03:21:07;12.20;;;4.43;;
70303;SDS011;57712;48.752;11.348;2023-11-21T03:23:37;11.98;;;4.70;;
70303;SDS011;57712;48.752;11.348;2023-11-21T03:26:04;14.25;;;4.10;;
70303;SDS011;57712;48.752;11.348;2023-11-21T03:28:30;14.48;;;4.47;;
70303;SDS011;57712;48.752;11.348;2023-11-21T03:30:57;11.95;;;4.25;;
70303;SDS011;57712;48.752;11.348;2023-11-21T03:33:24;10.90;;;4.33;;
70303;SDS011;57712;48.752;11.348;2023-11-21T03:35:51;13.52;;;4.32;;
70303;SDS011;57712;48.752;11.348;2023-11-21T03:38:19;11.25;;;4.60;;
70303;SDS011;57712;48.752;11.348;2023-11-21T03:40:46;12.73;;;4.72;;
70303;SDS011;57712;48.752;11.348;2023-11-21T03:43:14;15.25;;;4.15;;
70303;SDS011;57712;48.752;11.348;2023-11-21T03:45:40;11.30;;;4.27;;
70303;SDS011;57712;48.752;11.348;2023-11-21T03:48:07;11.02;;;4.18;;
70303;SDS011;57712;48.752;11.348;2023-11-21T03:50:35;16.50;;;4.93;;
70303;SDS011;57712;48.752;11.348;2023-11-21T03:53:02;13.35;;;4.65;;
70303;SDS011;57712;48.752;11.348;2023-11-21T03:55:28;11.55;;;4.75;;
70303;SDS011;57712;48.752;11.348;2023-11-21T03:57:57;15.75;;;4.85;;
70303;SDS011;57712;48.752;11.348;2023-11-21T04:00:25;10.65;;;3.95;;
70303;SDS011;57712;48.752;11.348;2023-11-21T04:02:53;15.80;;;4.63;;
70303;SDS011;57712;48.752;11.348;2023-11-21T04:05:20;11.85;;;4.00;;
70303;SDS011;57712;48.752;11.348;2023-11-21T04:07:50;12.32;;;4.50;;
70303;SDS011;57712;48.752;11.348;2023-11-21T04:10:17;10.27;;;4.28;;
70303;SDS011;57712;48.752;11.348;2023-11-21T04:12:44;14.10;;;4.70;;
70303;SDS011;57712;48.752;11.348;2023-11-21T04:15:11;14.82;;;4.70;;
70303;SDS011;57712;48.752;11.348;2023-11-21T04:17:41;11.15;;;4.13;;
70303;SDS011;57712;48.752;11.348;2023-11-21T04:20:08;11.85;;;4.25;;
70303;SDS011;57712;48.752;11.348;2023-11-21T04:22:40;11.30;;;4.57;;
70303;SDS011;57712;48.752;11.348;2023-11-21T04:25:08;13.25;;;4.53;;
70303;SDS011;57712;48.752;11.348;2023-11-21T04:27:38;14.40;;;4.30;;
70303;SDS011;57712;48.752;11.348;2023-11-21T04:30:06;10.93;;;4.07;;
70303;SDS011;57712;48.752;11.348;2023-11-21T04:32:33;13.93;;;5.03;;
70303;SDS011;57712;48.752;11.348;2023-11-21T04:35:00;10.77;;;4.30;;
70303;SDS011;57712;48.752;11.348;2023-11-21T04:37:27;10.85;;;4.38;;
70303;SDS011;57712;48.752;11.348;2023-11-21T04:39:54;10.68;;;4.65;;
70303;SDS011;57712;48.752;11.348;2023-11-21T04:42:20;18.65;;;5.13;;
70303;SDS011;57712;48.752;11.348;2023-11-21T04:44:48;13.25;;;4.65;;
70303;SDS011;57712;48.752;11.348;2023-11-21T04:47:15;12.95;;;4.05;;
70303;SDS011;57712;48.752;11.348;2023-11-21T04:49:42;16.10;;;4.85;;
70303;SDS011;57712;48.752;11.348;2023-11-21T04:52:10;18.05;;;5.30;;
70303;SDS011;57712;48.752;11.348;2023-11-21T04:54:37;18.30;;;5.28;;
70303;SDS011;57712;48.752;11.348;2023-11-21T04:57:03;12.75;;;4.60;;
70303;SDS011;57712;48.752;11.348;2023-11-21T04:59:31;10.93;;;4.57;;
70303;SDS011;57712;48.752;11.348;2023-11-21T05:01:58;12.55;;;4.43;;
70303;SDS011;57712;48.752;11.348;2023-11-21T05:04:26;13.38;;;5.10;;
70303;SDS011;57712;48.752;11.348;2023-11-21T05:06:53;12.85;;;4.57;;
70303;SDS011;57712;48.752;11.348;2023-11-21T05:09:20;11.48;;;4.35;;
70303;SDS011;57712;48.752;11.348;2023-11-21T05:11:48;15.75;;;4.72;;
70303;SDS011;57712;48.752;11.348;2023-11-21T05:14:15;11.20;;;4.57;;
70303;SDS011;57712;48.752;11.348;2023-11-21T05:16:42;11.88;;;4.47;;
70303;SDS011;57712;48.752;11.348;2023-11-21T05:19:08;12.52;;;5.30;;
70303;SDS011;57712;48.752;11.348;2023-11-21T05:21:35;12.55;;;5.35;;
70303;SDS011;57712;48.752;11.348;2023-11-21T05:24:02;9.88;;;4.45;;
70303;SDS011;57712;48.752;11.348;2023-11-21T05:26:29;12.15;;;4.75;;
70303;SDS011;57712;48.752;11.348;2023-11-21T05:28:56;11.88;;;4.65;;
70303;SDS011;57712;48.752;11.348;2023-11-21T05:31:22;12.60;;;4.90;;
70303;SDS011;57712;48.752;11.348;2023-11-21T05:33:49;13.70;;;5.18;;
70303;SDS011;57712;48.752;11.348;2023-11-21T05:36:16;11.93;;;5.13;;
70303;SDS011;57712;48.752;11.348;2023-11-21T05:38:42;16.98;;;5.03;;
70303;SDS011;57712;48.752;11.348;2023-11-21T05:41:09;14.65;;;4.80;;
70303;SDS011;57712;48.752;11.348;2023-11-21T05:43:39;14.77;;;5.65;;
70303;SDS011;57712;48.752;11.348;2023-11-21T05:46:06;10.60;;;4.45;;
70303;SDS011;57712;48.752;11.348;2023-11-21T05:48:33;20.90;;;9.07;;
70303;SDS011;57712;48.752;11.348;2023-11-21T05:51:00;19.02;;;7.30;;
70303;SDS011;57712;48.752;11.348;2023-11-21T05:53:28;37.05;;;17.17;;
70303;SDS011;57712;48.752;11.348;2023-11-21T05:55:54;43.28;;;19.20;;
70303;SDS011;57712;48.752;11.348;2023-11-21T05:58:21;36.05;;;17.35;;
70303;SDS011;57712;48.752;11.348;2023-11-21T06:00:48;29.10;;;13.77;;
70303;SDS011;57712;48.752;11.348;2023-11-21T06:03:14;34.38;;;15.55;;
70303;SDS011;57712;48.752;11.348;2023-11-21T06:05:41;22.63;;;10.57;;
70303;SDS011;57712;48.752;11.348;2023-11-21T06:08:08;27.92;;;12.32;;
70303;SDS011;57712;48.752;11.348;2023-11-21T06:10:35;24.67;;;10.85;;
70303;SDS011;57712;48.752;11.348;2023-11-21T06:13:01;27.60;;;10.93;;
70303;SDS011;57712;48.752;11.348;2023-11-21T06:15:30;18.63;;;8.38;;
70303;SDS011;57712;48.752;11.348;2023-11-21T06:17:57;15.75;;;6.57;;
70303;SDS011;57712;48.752;11.348;2023-11-21T06:20:23;13.05;;;6.30;;
70303;SDS011;57712;48.752;11.348;2023-11-21T06:22:50;15.05;;;5.60;;
70303;SDS011;57712;48.752;11.348;2023-11-21T06:25:18;14.10;;;6.10;;
70303;SDS011;57712;48.752;11.348;2023-11-21T06:27:46;15.98;;;7.20;;
70303;SDS011;57712;48.752;11.348;2023-11-21T06:30:14;15.73;;;5.78;;
70303;SDS011;57712;48.752;11.348;2023-11-21T06:32:42;14.00;;;5.80;;
70303;SDS011;57712;48.752;11.348;2023-11-21T06:35:13;12.02;;;6.00;;
70303;SDS011;57712;48.752;11.348;2023-11-21T06:37:43;13.18;;;6.38;;
70303;SDS011;57712;48.752;11.348;2023-11-21T06:40:16;14.75;;;6.40;;
70303;SDS011;57712;48.752;11.348;2023-11-21T06:42:45;15.57;;;6.07;;
70303;SDS011;57712;48.752;11.348;2023-11-21T06:45:13;11.60;;;6.07;;
70303;SDS011;57712;48.752;11.348;2023-11-21T06:47:41;14.60;;;6.82;;
70303;SDS011;57712;48.752;11.348;2023-11-21T06:50:08;12.75;;;5.90;;
70303;SDS011;57712;48.752;11.348;2023-11-21T06:52:35;14.10;;;5.80;;
70303;SDS011;57712;48.752;11.348;2023-11-21T06:55:02;14.88;;;6.00;;
70303;SDS011;57712;48.752;11.348;2023-11-21T06:57:30;11.07;;;4.68;;
70303;SDS011;57712;48.752;11.348;2023-11-21T06:59:57;15.57;;;6.00;;
70303;SDS011;57712;48.752;11.348;2023-11-21T07:02:24;14.68;;;5.35;;
70303;SDS011;57712;48.752;11.348;2023-11-21T07:04:51;12.05;;;5.75;;
70303;SDS011;57712;48.752;11.348;2023-11-21T07:07:18;13.07;;;5.50;;
70303;SDS011;57712;48.752;11.348;2023-11-21T07:09:45;16.92;;;5.75;;
70303;SDS011;57712;48.752;11.348;2023-11-21T07:12:12;13.32;;;5.80;;
70303;SDS011;57712;48.752;11.348;2023-11-21T07:14:40;15.00;;;5.83;;
70303;SDS011;57712;48.752;11.348;2023-11-21T07:17:09;19.63;;;6.65;;
70303;SDS011;57712;48.752;11.348;2023-11-21T07:19:36;12.70;;;5.00;;
70303;SDS011;57712;48.752;11.348;2023-11-21T07:22:03;10.02;;;4.47;;
70303;SDS011;57712;48.752;11.348;2023-11-21T07:24:30;17.45;;;6.63;;
70303;SDS011;57712;48.752;11.348;2023-11-21T07:26:58;20.52;;;7.72;;
70303;SDS011;57712;48.752;11.348;2023-11-21T07:29:25;16.08;;;5.13;;
70303;SDS011;57712;48.752;11.348;2023-11-21T07:31:53;17.38;;;7.03;;
70303;SDS011;57712;48.752;11.348;2023-11-21T07:34:20;21.45;;;8.80;;
70303;SDS011;57712;48.752;11.348;2023-11-21T07:36:47;18.10;;;6.90;;
70303;SDS011;57712;48.752;11.348;2023-11-21T07:39:14;17.17;;;6.60;;
70303;SDS011;57712;48.752;11.348;2023-11-21T07:41:43;14.48;;;4.90;;
70303;SDS011;57712;48.752;11.348;2023-11-21T07:44:16;16.88;;;6.20;;
70303;SDS011;57712;48.752;11.348;2023-11-21T07:46:44;15.55;;;6.20;;
70303;SDS011;57712;48.752;11.348;2023-11-21T07:49:11;10.60;;;4.53;;
70303;SDS011;57712;48.752;11.348;2023-11-21T07:51:41;13.23;;;4.17;;
70303;SDS011;57712;48.752;11.348;2023-11-21T07:54:08;10.32;;;4.00;;
70303;SDS011;57712;48.752;11.348;2023-11-21T07:56:36;25.08;;;15.25;;
70303;SDS011;57712;48.752;11.348;2023-11-21T07:59:03;13.85;;;7.18;;
70303;SDS011;57712;48.752;11.348;2023-11-21T08:01:30;12.57;;;4.65;;
70303;SDS011;57712;48.752;11.348;2023-11-21T08:03:58;11.65;;;4.68;;
70303;SDS011;57712;48.752;11.348;2023-11-21T08:06:28;15.40;;;6.90;;
70303;SDS011;57712;48.752;11.348;2023-11-21T08:08:57;12.48;;;4.60;;
70303;SDS011;57712;48.752;11.348;2023-11-21T08:11:24;12.27;;;4.72;;
70303;SDS011;57712;48.752;11.348;2023-11-21T08:13:50;11.85;;;6.40;;
70303;SDS011;57712;48.752;11.348;2023-11-21T08:16:17;13.27;;;6.50;;
70303;SDS011;57712;48.752;11.348;2023-11-21T08:18:44;12.32;;;5.30;;
70303;SDS011;57712;48.752;11.348;2023-11-21T08:21:12;13.40;;;6.03;;
70303;SDS011;57712;48.752;11.348;2023-11-21T08:23:39;13.40;;;7.00;;
70303;SDS011;57712;48.752;11.348;2023-11-21T08:26:06;10.88;;;3.72;;
70303;SDS011;57712;48.752;11.348;2023-11-21T08:28:32;9.07;;;3.65;;
70303;SDS011;57712;48.752;11.348;2023-11-21T08:31:00;9.77;;;3.20;;
70303;SDS011;57712;48.752;11.348;2023-11-21T08:33:27;11.75;;;5.40;;
70303;SDS011;57712;48.752;11.348;2023-11-21T08:35:54;9.20;;;3.03;;
70303;SDS011;57712;48.752;11.348;2023-11-21T08:38:21;8.82;;;2.90;;
70303;SDS011;57712;48.752;11.348;2023-11-21T08:40:48;7.07;;;2.40;;
70303;SDS011;57712;48.752;11.348;2023-11-21T08:43:15;8.40;;;2.50;;
70303;SDS011;57712;48.752;11.348;2023-11-21T08:45:42;8.32;;;2.08;;
70303;SDS011;57712;48.752;11.348;2023-11-21T08:48:09;8.77;;;3.72;;
70303;SDS011;57712;48.752;11.348;2023-11-21T08:50:38;8.77;;;3.10;;
70303;SDS011;57712;48.752;11.348;2023-11-21T08:53:04;9.63;;;2.80;;
70303;SDS011;57712;48.752;11.348;2023-11-21T08:55:32;7.97;;;2.20;;
70303;SDS011;57712;48.752;11.348;2023-11-21T08:58:04;8.18;;;2.55;;
70303;SDS011;57712;48.752;11.348;2023-11-21T09:00:32;6.95;;;2.20;;
70303;SDS011;57712;48.752;11.348;2023-11-21T09:03:00;11.25;;;2.10;;
70303;SDS011;57712;48.752;11.348;2023-11-21T09:05:28;7.50;;;2.40;;
70303;SDS011;57712;48.752;11.348;2023-11-21T09:07:55;9.95;;;2.25;;
70303;SDS011;57712;48.752;11.348;2023-11-21T09:10:22;9.65;;;2.85;;
70303;SDS011;57712;48.752;11.348;2023-11-21T09:12:50;8.85;;;3.90;;
70303;SDS011;57712;48.752;11.348;2023-11-21T09:15:18;14.77;;;3.63;;
70303;SDS011;57712;48.752;11.348;2023-11-21T09:17:47;11.13;;;4.43;;
70303;SDS011;57712;48.752;11.348;2023-11-21T09:20:14;16.60;;;6.72;;
70303;SDS011;57712;48.752;11.348;2023-11-21T09:22:41;16.58;;;6.30;;
70303;SDS011;57712;48.752;11.348;2023-11-21T09:25:08;13.27;;;5.72;;
70303;SDS011;57712;48.752;11.348;2023-11-21T09:27:35;15.80;;;5.68;;
70303;SDS011;57712;48.752;11.348;2023-11-21T09:30:05;14.95;;;6.47;;
70303;SDS011;57712;48.752;11.348;2023-11-21T09:32:35;17.83;;;7.07;;
70303;SDS011;57712;48.752;11.348;2023-11-21T09:35:04;19.15;;;7.75;;
70303;SDS011;57712;48.752;11.348;2023-11-21T09:37:31;14.15;;;6.82;;
70303;SDS011;57712;48.752;11.348;2023-11-21T09:39:58;16.77;;;6.97;;
70303;SDS011;57712;48.752;11.348;2023-11-21T09:42:38;17.97;;;8.00;;
70303;SDS011;57712;48.752;11.348;2023-11-21T09:47:55;18.85;;;8.57;;
70303;SDS011;57712;48.752;11.348;2023-11-21T09:50:23;21.35;;;9.43;;
70303;SDS011;57712;48.752;11.348;2023-11-21T09:55:37;22.95;;;9.80;;
70303;SDS011;57712;48.752;11.348;2023-11-21T09:58:06;20.10;;;9.63;;
70303;SDS011;57712;48.752;11.348;2023-11-21T10:00:39;23.73;;;10.15;;
70303;SDS011;57712;48.752;11.348;2023-11-21T10:03:10;22.50;;;9.45;;
70303;SDS011;57712;48.752;11.348;2023-11-21T10:05:38;15.15;;;7.65;;
70303;SDS011;57712;48.752;11.348;2023-11-21T10:08:09;14.23;;;7.57;;
70303;SDS011;57712;48.752;11.348;2023-11-21T10:10:37;14.88;;;6.70;;
70303;SDS011;57712;48.752;11.348;2023-11-21T10:13:11;12.93;;;6.55;;
70303;SDS011;57712;48.752;11.348;2023-11-21T10:15:43;13.15;;;5.85;;
70303;SDS011;57712;48.752;11.348;2023-11-21T10:18:15;13.80;;;5.93;;
70303;SDS011;57712;48.752;11.348;2023-11-21T10:20:42;12.37;;;5.60;;
70303;SDS011;57712;48.752;11.348;2023-11-21T10:23:12;11.32;;;5.28;;
70303;SDS011;57712;48.752;11.348;2023-11-21T10:25:42;12.15;;;5.32;;
70303;SDS011;57712;48.752;11.348;2023-11-21T10:28:09;13.18;;;6.18;;
70303;SDS011;57712;48.752;11.348;2023-11-21T10:30:37;15.32;;;8.20;;
70303;SDS011;57712;48.752;11.348;2023-11-21T10:33:05;16.33;;;6.77;;
70303;SDS011;57712;48.752;11.348;2023-11-21T10:35:45;13.80;;;7.75;;
70303;SDS011;57712;48.752;11.348;2023-11-21T10:38:21;11.43;;;6.00;;
70303;SDS011;57712;48.752;11.348;2023-11-21T10:40:50;14.05;;;6.30;;
70303;SDS011;57712;48.752;11.348;2023-11-21T10:43:17;10.68;;;5.30;;
70303;SDS011;57712;48.752;11.348;2023-11-21T10:45:45;12.02;;;6.13;;
70303;SDS011;57712;48.752;11.348;2023-11-21T10:48:12;12.93;;;6.72;;
70303;SDS011;57712;48.752;11.348;2023-11-21T10:50:45;13.98;;;6.40;;
70303;SDS011;57712;48.752;11.348;2023-11-21T10:53:13;14.02;;;5.93;;
70303;SDS011;57712;48.752;11.348;2023-11-21T10:55:40;11.85;;;6.10;;
70303;SDS011;57712;48.752;11.348;2023-11-21T10:58:08;11.77;;;5.53;;
70303;SDS011;57712;48.752;11.348;2023-11-21T11:00:39;15.00;;;7.32;;
70303;SDS011;57712;48.752;11.348;2023-11-21T11:03:07;12.30;;;4.75;;
70303;SDS011;57712;48.752;11.348;2023-11-21T11:05:43;10.80;;;4.97;;
70303;SDS011;57712;48.752;11.348;2023-11-21T11:08:19;15.15;;;6.78;;
70303;SDS011;57712;48.752;11.348;2023-11-21T11:10:54;9.53;;;4.53;;
70303;SDS011;57712;48.752;11.348;2023-11-21T11:13:22;9.88;;;4.30;;
70303;SDS011;57712;48.752;11.348;2023-11-21T11:15:49;7.15;;;3.42;;
70303;SDS011;57712;48.752;11.348;2023-11-21T11:18:16;8.43;;;3.78;;
70303;SDS011;57712;48.752;11.348;2023-11-21T11:20:44;7.68;;;3.50;;
70303;SDS011;57712;48.752;11.348;2023-11-21T11:23:27;7.53;;;3.30;;
70303;SDS011;57712;48.752;11.348;2023-11-21T11:28:44;8.10;;;3.78;;
70303;SDS011;57712;48.752;11.348;2023-11-21T11:31:23;12.50;;;4.03;;
70303;SDS011;57712;48.752;11.348;2023-11-21T11:37:06;9.80;;;5.63;;
70303;SDS011;57712;48.752;11.348;2023-11-21T11:39:37;11.60;;;5.38;;
70303;SDS011;57712;48.752;11.348;2023-11-21T11:42:08;7.88;;;3.40;;
70303;SDS011;57712;48.752;11.348;2023-11-21T11:44:46;12.23;;;9.45;;
70303;SDS011;57712;48.752;11.348;2023-11-21T11:52:37;7.15;;;3.65;;
70303;SDS011;57712;48.752;11.348;2023-11-21T11:55:12;4.75;;;1.80;;
70303;SDS011;57712;48.752;11.348;2023-11-21T11:57:41;4.85;;;2.10;;
70303;SDS011;57712;48.752;11.348;2023-11-21T12:00:18;7.10;;;2.80;;
70303;SDS011;57712;48.752;11.348;2023-11-21T12:02:55;5.57;;;2.13;;
70303;SDS011;57712;48.752;11.348;2023-11-21T12:05:33;4.90;;;1.67;;
70303;SDS011;57712;48.752;11.348;2023-11-21T12:08:10;7.00;;;1.85;;
70303;SDS011;57712;48.752;11.348;2023-11-21T12:10:38;6.70;;;2.00;;
70303;SDS011;57712;48.752;11.348;2023-11-21T12:13:06;6.13;;;1.60;;
70303;SDS011;57712;48.752;11.348;2023-11-21T12:15:36;5.90;;;2.27;;
70303;SDS011;57712;48.752;11.348;2023-11-21T12:18:05;5.57;;;2.70;;
70303;SDS011;57712;48.752;11.348;2023-11-21T12:20:33;3.90;;;1.35;;
70303;SDS011;57712;48.752;11.348;2023-11-21T12:23:06;4.60;;;1.27;;
70303;SDS011;57712;48.752;11.348;2023-11-21T12:25:33;5.35;;;0.80;;
70303;SDS011;57712;48.752;11.348;2023-11-21T12:28:01;6.07;;;1.40;;
70303;SDS011;57712;48.752;11.348;2023-11-21T12:30:30;6.80;;;1.73;;
70303;SDS011;57712;48.752;11.348;2023-11-21T12:32:58;4.85;;;1.42;;
70303;SDS011;57712;48.752;11.348;2023-11-21T12:35:31;7.82;;;2.95;;
70303;SDS011;57712;48.752;11.348;2023-11-21T12:38:01;6.28;;;1.80;;
70303;SDS011;57712;48.752;11.348;2023-11-21T12:40:29;4.80;;;1.27;;
70303;SDS011;57712;48.752;11.348;2023-11-21T12:42:56;5.60;;;1.25;;
70303;SDS011;57712;48.752;11.348;2023-11-21T12:45:26;5.80;;;1.58;;
70303;SDS011;57712;48.752;11.348;2023-11-21T12:47:59;5.82;;;1.83;;
70303;SDS011;57712;48.752;11.348;2023-11-21T12:50:30;5.57;;;2.05;;
70303;SDS011;57712;48.752;11.348;2023-11-21T12:53:01;6.53;;;1.50;;
70303;SDS011;57712;48.752;11.348;2023-11-21T12:55:35;5.40;;;1.38;;
70303;SDS011;57712;48.752;11.348;2023-11-21T12:58:05;6.05;;;1.73;;
70303;SDS011;57712;48.752;11.348;2023-11-21T13:00:47;5.13;;;2.17;;
70303;SDS011;57712;48.752;11.348;2023-11-21T13:03:15;7.32;;;6.45;;
70303;SDS011;57712;48.752;11.348;2023-11-21T13:05:50;6.27;;;4.43;;
70303;SDS011;57712;48.752;11.348;2023-11-21T13:08:19;5.47;;;2.20;;
70303;SDS011;57712;48.752;11.348;2023-11-21T13:10:49;5.07;;;1.70;;
70303;SDS011;57712;48.752;11.348;2023-11-21T13:13:17;6.28;;;1.98;;
70303;SDS011;57712;48.752;11.348;2023-11-21T13:18:23;5.73;;;1.10;;
70303;SDS011;57712;48.752;11.348;2023-11-21T13:20:53;6.57;;;2.47;;
70303;SDS011;57712;48.752;11.348;2023-11-21T13:23:21;8.38;;;3.00;;
70303;SDS011;57712;48.752;11.348;2023-11-21T13:25:49;12.88;;;4.70;;
70303;SDS011;57712;48.752;11.348;2023-11-21T13:28:27;26.92;;;9.45;;
70303;SDS011;57712;48.752;11.348;2023-11-21T13:31:02;21.97;;;7.73;;
70303;SDS011;57712;48.752;11.348;2023-11-21T13:33:37;17.35;;;6.43;;
70303;SDS011;57712;48.752;11.348;2023-11-21T13:36:05;13.68;;;4.50;;
70303;SDS011;57712;48.752;11.348;2023-11-21T13:38:36;12.07;;;4.57;;
70303;SDS011;57712;48.752;11.348;2023-11-21T13:41:03;11.07;;;4.32;;
70303;SDS011;57712;48.752;11.348;2023-11-21T13:43:34;7.70;;;3.00;;
70303;SDS011;57712;48.752;11.348;2023-11-21T13:46:03;7.63;;;3.20;;
70303;SDS011;57712;48.752;11.348;2023-11-21T13:48:33;5.28;;;2.63;;
70303;SDS011;57712;48.752;11.348;2023-11-21T13:51:11;5.05;;;1.70;;
70303;SDS011;57712;48.752;11.348;2023-11-21T13:53:45;4.25;;;1.60;;
70303;SDS011;57712;48.752;11.348;2023-11-21T13:56:14;13.97;;;6.97;;
70303;SDS011;57712;48.752;11.348;2023-11-21T13:58:46;12.68;;;7.50;;
70303;SDS011;57712;48.752;11.348;2023-11-21T14:01:23;6.80;;;2.50;;
70303;SDS011;57712;48.752;11.348;2023-11-21T14:04:09;6.78;;;1.83;;
70303;SDS011;57712;48.752;11.348;2023-11-21T14:06:46;10.88;;;7.30;;
70303;SDS011;57712;48.752;11.348;2023-11-21T14:09:20;8.82;;;3.90;;
70303;SDS011;57712;48.752;11.348;2023-11-21T14:11:49;7.20;;;3.03;;
70303;SDS011;57712;48.752;11.348;2023-11-21T14:14:19;4.55;;;1.73;;
70303;SDS011;57712;48.752;11.348;2023-11-21T14:16:48;7.00;;;2.33;;
70303;SDS011;57712;48.752;11.348;2023-11-21T14:19:15;9.43;;;2.70;;
70303;SDS011;57712;48.752;11.348;2023-11-21T14:21:44;6.67;;;3.63;;
70303;SDS011;57712;48.752;11.348;2023-11-21T14:24:12;5.88;;;2.17;;
70303;SDS011;57712;48.752;11.348;2023-11-21T14:26:40;6.22;;;1.90;;
70303;SDS011;57712;48.752;11.348;2023-11-21T14:29:08;5.35;;;1.30;;
70303;SDS011;57712;48.752;11.348;2023-11-21T14:31:37;5.68;;;1.65;;
70303;SDS011;57712;48.752;11.348;2023-11-21T14:34:04;4.78;;;1.70;;
70303;SDS011;57712;48.752;11.348;2023-11-21T14:36:33;5.85;;;2.25;;
70303;SDS011;57712;48.752;11.348;2023-11-21T14:39:01;5.50;;;2.03;;
70303;SDS011;57712;48.752;11.348;2023-11-21T14:41:28;7.10;;;2.28;;
70303;SDS011;57712;48.752;11.348;2023-11-21T14:43:55;5.78;;;1.73;;
70303;SDS011;57712;48.752;11.348;2023-11-21T14:46:23;4.30;;;1.80;;
70303;SDS011;57712;48.752;11.348;2023-11-21T14:48:50;4.95;;;1.45;;
70303;SDS011;57712;48.752;11.348;2023-11-21T14:51:28;5.57;;;1.67;;